HAHCR LHBS-LHBP
Flight info
| Callsign | HAHCR |
|---|---|
| Flight time | 0h 16m |
| Altitude | 1500 |
| Route | BUDAORS DCT LHFH DCT LHDK DCT MOGYOROD TAPIOSAP |
| Aircraft | EC35/M-SBGRW/S |
Departure
| Time | 2026-04-20 18:24 |
|---|---|
| Airport | Budaörs Airfield (LHBS) |
Arrival
| Time | 2026-04-20 18:40 |
|---|---|
| Airport | Budapest Liszt Ferenc International Airport (LHBP) |
| Time | Latitude | Longitude | Altitude | Speed | Heading |
|---|---|---|---|---|---|
| 2026-04-20 18:07 | 47.44827 | 18.98444 | 409 ft | 0 kts | 0° |
| 2026-04-20 18:23 | 47.44850 | 18.98449 | 422 ft | 7 kts | 43° |
| 2026-04-20 18:23 | 47.44915 | 18.98482 | 625 ft | 39 kts | 354° |
| 2026-04-20 18:23 | 47.45369 | 18.98037 | 658 ft | 104 kts | 316° |
| 2026-04-20 18:24 | 47.45734 | 18.97111 | 996 ft | 107 kts | 292° |
| 2026-04-20 18:24 | 47.45985 | 18.96078 | 1241 ft | 109 kts | 294° |
| 2026-04-20 18:24 | 47.46347 | 18.95006 | 1268 ft | 120 kts | 297° |
| 2026-04-20 18:24 | 47.46673 | 18.93868 | 1366 ft | 117 kts | 297° |
| 2026-04-20 18:25 | 47.47096 | 18.92962 | 1593 ft | 111 kts | 314° |
| 2026-04-20 18:25 | 47.47740 | 18.92190 | 1535 ft | 124 kts | 323° |
| 2026-04-20 18:25 | 47.48473 | 18.91589 | 1695 ft | 114 kts | 334° |
| 2026-04-20 18:25 | 47.49203 | 18.91111 | 1751 ft | 119 kts | 331° |
| 2026-04-20 18:26 | 47.50030 | 18.91055 | 1757 ft | 128 kts | 4° |
| 2026-04-20 18:26 | 47.50861 | 18.91629 | 1702 ft | 134 kts | 25° |
| 2026-04-20 18:26 | 47.51497 | 18.92721 | 1511 ft | 149 kts | 47° |
| 2026-04-20 18:26 | 47.52027 | 18.94022 | 1373 ft | 145 kts | 50° |
| 2026-04-20 18:27 | 47.52454 | 18.95289 | 1604 ft | 134 kts | 61° |
| 2026-04-20 18:27 | 47.52394 | 18.96848 | 1133 ft | 166 kts | 92° |
| 2026-04-20 18:27 | 47.52273 | 18.98492 | 1107 ft | 150 kts | 85° |
| 2026-04-20 18:27 | 47.52317 | 18.99993 | 1124 ft | 147 kts | 75° |
| 2026-04-20 18:28 | 47.52517 | 19.01490 | 1052 ft | 147 kts | 68° |
| 2026-04-20 18:28 | 47.52785 | 19.02853 | 983 ft | 150 kts | 60° |
| 2026-04-20 18:28 | 47.53341 | 19.04166 | 740 ft | 147 kts | 40° |
| 2026-04-20 18:28 | 47.54064 | 19.05063 | 1002 ft | 123 kts | 27° |
| 2026-04-20 18:29 | 47.54754 | 19.05682 | 1301 ft | 116 kts | 18° |
| 2026-04-20 18:29 | 47.55533 | 19.06088 | 1347 ft | 122 kts | 6° |
| 2026-04-20 18:29 | 47.56411 | 19.06322 | 1189 ft | 133 kts | 2° |
| 2026-04-20 18:29 | 47.57317 | 19.06476 | 1091 ft | 134 kts | 0° |
| 2026-04-20 18:30 | 47.58243 | 19.06763 | 916 ft | 139 kts | 7° |
| 2026-04-20 18:30 | 47.59181 | 19.07090 | 819 ft | 134 kts | 7° |
| 2026-04-20 18:30 | 47.60038 | 19.07598 | 894 ft | 131 kts | 17° |
| 2026-04-20 18:30 | 47.60817 | 19.08349 | 891 ft | 136 kts | 35° |
| 2026-04-20 18:31 | 47.61365 | 19.09441 | 1135 ft | 128 kts | 49° |
| 2026-04-20 18:31 | 47.61767 | 19.10538 | 1488 ft | 124 kts | 56° |
| 2026-04-20 18:31 | 47.61798 | 19.11943 | 1245 ft | 163 kts | 86° |
| 2026-04-20 18:31 | 47.61516 | 19.13640 | 800 ft | 171 kts | 105° |
| 2026-04-20 18:32 | 47.61035 | 19.15104 | 947 ft | 145 kts | 112° |
| 2026-04-20 18:32 | 47.60609 | 19.16408 | 1204 ft | 138 kts | 107° |
| 2026-04-20 18:32 | 47.60286 | 19.17740 | 1447 ft | 137 kts | 103° |
| 2026-04-20 18:32 | 47.59940 | 19.19102 | 1502 ft | 151 kts | 102° |
| 2026-04-20 18:33 | 47.59717 | 19.20670 | 1282 ft | 159 kts | 89° |
| 2026-04-20 18:33 | 47.59903 | 19.22150 | 1444 ft | 134 kts | 59° |
| 2026-04-20 18:33 | 47.59986 | 19.23490 | 1488 ft | 152 kts | 89° |
| 2026-04-20 18:33 | 47.59562 | 19.24953 | 1425 ft | 155 kts | 130° |
| 2026-04-20 18:34 | 47.58614 | 19.24990 | 1533 ft | 150 kts | 210° |
| 2026-04-20 18:34 | 47.57592 | 19.25342 | 1492 ft | 160 kts | 147° |
| 2026-04-20 18:34 | 47.56756 | 19.26472 | 1326 ft | 163 kts | 129° |
| 2026-04-20 18:34 | 47.55973 | 19.27678 | 1237 ft | 160 kts | 135° |
| 2026-04-20 18:35 | 47.54925 | 19.28093 | 1113 ft | 159 kts | 183° |
| 2026-04-20 18:35 | 47.53828 | 19.27983 | 1027 ft | 157 kts | 185° |
| 2026-04-20 18:35 | 47.52758 | 19.27910 | 1029 ft | 153 kts | 183° |
| 2026-04-20 18:35 | 47.51694 | 19.27914 | 1000 ft | 153 kts | 180° |
| 2026-04-20 18:36 | 47.50626 | 19.27882 | 944 ft | 153 kts | 184° |
| 2026-04-20 18:36 | 47.49584 | 19.27742 | 941 ft | 149 kts | 191° |
| 2026-04-20 18:36 | 47.48574 | 19.27501 | 1022 ft | 145 kts | 191° |
| 2026-04-20 18:36 | 47.47551 | 19.27294 | 948 ft | 149 kts | 186° |
| 2026-04-20 18:37 | 47.46605 | 19.27179 | 1024 ft | 128 kts | 183° |
| 2026-04-20 18:37 | 47.45725 | 19.27137 | 1025 ft | 122 kts | 180° |
| 2026-04-20 18:37 | 47.44864 | 19.27094 | 970 ft | 124 kts | 193° |
| 2026-04-20 18:37 | 47.44124 | 19.26516 | 921 ft | 117 kts | 220° |
| 2026-04-20 18:38 | 47.43435 | 19.25887 | 887 ft | 121 kts | 199° |
| 2026-04-20 18:38 | 47.42719 | 19.26292 | 1018 ft | 113 kts | 108° |
| 2026-04-20 18:38 | 47.42968 | 19.26905 | 954 ft | 70 kts | 334° |
| 2026-04-20 18:38 | 47.43091 | 19.26265 | 838 ft | 76 kts | 274° |
| 2026-04-20 18:39 | 47.43533 | 19.25931 | 916 ft | 106 kts | 21° |
| 2026-04-20 18:39 | 47.43252 | 19.26711 | 997 ft | 127 kts | 197° |
| 2026-04-20 18:39 | 47.43341 | 19.25966 | 907 ft | 112 kts | 354° |
| 2026-04-20 18:39 | 47.43551 | 19.26789 | 1210 ft | 128 kts | 134° |
| 2026-04-20 18:40 | 47.42987 | 19.26391 | 944 ft | 90 kts | 289° |
| 2026-04-20 18:40 | 47.43292 | 19.26043 | 1033 ft | 24 kts | 313° |
| 2026-04-20 18:40 | 47.43383 | 19.26081 | 908 ft | 12 kts | 319° |
| 2026-04-20 18:40 | 47.43451 | 19.26068 | 842 ft | 8 kts | 312° |
| 2026-04-20 18:41 | 47.43484 | 19.26078 | 804 ft | 2 kts | 314° |
| 2026-04-20 18:41 | 47.43504 | 19.26121 | 849 ft | 5 kts | 271° |
| 2026-04-20 18:41 | 47.43493 | 19.26134 | 891 ft | 1 kts | 213° |
| 2026-04-20 18:41 | 47.43480 | 19.26064 | 1009 ft | 16 kts | 217° |
| 2026-04-20 18:42 | 47.43443 | 19.25864 | 1101 ft | 19 kts | 199° |
| 2026-04-20 18:42 | 47.43306 | 19.25906 | 951 ft | 35 kts | 60° |
| 2026-04-20 18:42 | 47.43270 | 19.26223 | 981 ft | 27 kts | 345° |
| 2026-04-20 18:42 | 47.43405 | 19.26382 | 1044 ft | 25 kts | 302° |
| 2026-04-20 18:43 | 47.43539 | 19.26329 | 1057 ft | 14 kts | 251° |
| 2026-04-20 18:43 | 47.43443 | 19.25953 | 855 ft | 82 kts | 237° |
| 2026-04-20 18:43 | 47.43032 | 19.25122 | 670 ft | 105 kts | 251° |
| 2026-04-20 18:43 | 47.43162 | 19.24127 | 590 ft | 94 kts | 293° |
| 2026-04-20 18:44 | 47.43383 | 19.23517 | 532 ft | 43 kts | 289° |
| 2026-04-20 18:44 | 47.43508 | 19.23185 | 487 ft | 33 kts | 324° |
| 2026-04-20 18:44 | 47.43661 | 19.22986 | 466 ft | 23 kts | 343° |
| 2026-04-20 18:44 | 47.43744 | 19.22918 | 441 ft | 5 kts | 65° |
| 2026-04-20 18:45 | 47.43773 | 19.22936 | 447 ft | 6 kts | 38° |
| 2026-04-20 18:45 | 47.43807 | 19.22956 | 441 ft | 1 kts | 41° |
| 2026-04-20 18:45 | 47.43803 | 19.22958 | 437 ft | 0 kts | 32° |